Time;durP1;ratioP1;P1;durP2;ratioP2;P2;SDS_P1;SDS_P2;PMS_P1;PMS_P2;Temp;Humidity;BMP_temperature;BMP_pressure;BME280_temperature;BME280_humidity;BME280_pressure;Samples;Min_cycle;Max_cycle;Signal;HPM_P1;HPM_P2
2022/01/19 00:00:10;;;;;;;8.93;6.17;;;;;;;;;;5074911;28;20462;-68
2022/01/19 00:02:38;;;;;;;9.57;6.33;;;;;;;;;;5075030;28;20498;-68
2022/01/19 00:05:04;;;;;;;8.40;6.30;;;;;;;;;;5075012;28;20843;-68
2022/01/19 00:07:30;;;;;;;9.30;6.83;;;;;;;;;;5074965;28;20424;-68
2022/01/19 00:10:02;;;;;;;10.20;7.30;;;;;;;;;;5056928;28;20497;-68
2022/01/19 00:12:28;;;;;;;10.07;7.10;;;;;;;;;;5074975;28;20396;-69
2022/01/19 00:14:54;;;;;;;13.03;7.63;;;;;;;;;;5074726;28;20413;-68
2022/01/19 00:17:20;;;;;;;11.83;7.70;;;;;;;;;;5056835;28;20413;-67
2022/01/19 00:19:46;;;;;;;13.63;8.00;;;;;;;;;;5056772;28;20897;-68
2022/01/19 00:22:12;;;;;;;13.03;7.00;;;;;;;;;;5074631;28;20397;-68
2022/01/19 00:24:40;;;;;;;12.90;7.50;;;;;;;;;;5056644;28;20470;-68
2022/01/19 00:27:06;;;;;;;13.40;8.10;;;;;;;;;;5074641;28;20951;-67
2022/01/19 00:29:32;;;;;;;11.77;7.93;;;;;;;;;;5056368;28;20833;-67
2022/01/19 00:31:58;;;;;;;10.33;7.40;;;;;;;;;;5074479;28;20752;-67
2022/01/19 00:34:24;;;;;;;14.40;6.90;;;;;;;;;;5074361;28;20410;-67
2022/01/19 00:36:50;;;;;;;10.30;7.40;;;;;;;;;;5074301;28;20402;-68
2022/01/19 00:39:16;;;;;;;11.40;7.07;;;;;;;;;;5074296;28;20422;-68
2022/01/19 00:41:42;;;;;;;9.70;7.53;;;;;;;;;;5074269;28;20406;-67
2022/01/19 00:44:08;;;;;;;11.77;7.07;;;;;;;;;;5074301;28;20739;-68
2022/01/19 00:46:34;;;;;;;11.30;7.00;;;;;;;;;;5074039;28;20409;-68
2022/01/19 00:49:00;;;;;;;10.70;6.70;;;;;;;;;;5073955;28;20465;-68
2022/01/19 00:51:26;;;;;;;9.70;7.27;;;;;;;;;;5074062;28;20416;-68
2022/01/19 00:53:52;;;;;;;11.20;6.73;;;;;;;;;;5074075;28;20416;-68
2022/01/19 00:56:18;;;;;;;9.47;6.30;;;;;;;;;;5073962;28;20460;-68
2022/01/19 00:58:44;;;;;;;10.97;6.80;;;;;;;;;;5073544;28;20489;-68
2022/01/19 01:01:10;;;;;;;11.30;7.03;;;;;;;;;;5073974;28;20497;-67
2022/01/19 01:03:36;;;;;;;8.90;6.70;;;;;;;;;;5073771;28;20398;-67
2022/01/19 01:06:02;;;;;;;11.80;7.20;;;;;;;;;;5073743;28;20406;-68
2022/01/19 01:08:28;;;;;;;9.90;6.57;;;;;;;;;;5073612;28;20432;-68
2022/01/19 01:10:54;;;;;;;12.57;7.63;;;;;;;;;;5073723;28;20418;-67
2022/01/19 01:16:02;;;;;;;10.17;6.43;;;;;;;;;;5073595;28;20919;-68
2022/01/19 01:18:29;;;;;;;8.43;6.63;;;;;;;;;;5073550;28;20396;-68
2022/01/19 01:20:56;;;;;;;10.00;6.60;;;;;;;;;;5073605;28;20761;-68
2022/01/19 01:23:23;;;;;;;10.90;7.23;;;;;;;;;;5073522;28;20948;-68
2022/01/19 01:25:50;;;;;;;9.83;6.67;;;;;;;;;;5073492;28;20501;-68
2022/01/19 01:28:16;;;;;;;10.30;6.80;;;;;;;;;;5073340;28;20953;-69
2022/01/19 01:30:43;;;;;;;16.10;7.27;;;;;;;;;;5073561;28;20412;-68
2022/01/19 01:33:10;;;;;;;9.97;6.67;;;;;;;;;;5072970;28;20406;-68
2022/01/19 01:35:36;;;;;;;10.93;7.70;;;;;;;;;;5073253;28;20915;-68
2022/01/19 01:38:02;;;;;;;8.40;6.67;;;;;;;;;;5055365;28;20410;-68
2022/01/19 01:40:31;;;;;;;13.93;7.40;;;;;;;;;;5055291;28;20410;-69
2022/01/19 01:42:57;;;;;;;9.77;6.67;;;;;;;;;;5073308;28;20541;-69
2022/01/19 01:45:28;;;;;;;9.43;6.60;;;;;;;;;;5073205;28;20471;-68
2022/01/19 01:48:04;;;;;;;12.67;8.00;;;;;;;;;;5073259;28;20410;-69
2022/01/19 01:53:27;;;;;;;13.77;7.47;;;;;;;;;;5073269;28;20446;-69
2022/01/19 01:55:55;;;;;;;10.47;7.50;;;;;;;;;;5073146;28;20899;-69
2022/01/19 01:58:22;;;;;;;13.30;6.93;;;;;;;;;;5073022;28;20401;-69
2022/01/19 02:00:48;;;;;;;11.90;7.40;;;;;;;;;;5072895;28;20453;-69
2022/01/19 02:03:14;;;;;;;13.80;7.60;;;;;;;;;;5073110;28;20417;-69
2022/01/19 02:05:54;;;;;;;9.23;7.10;;;;;;;;;;5055120;28;20499;-67
2022/01/19 02:08:23;;;;;;;12.60;6.77;;;;;;;;;;5072996;28;20401;-67
2022/01/19 02:11:31;;;;;;;10.50;7.23;;;;;;;;;;5073017;28;20422;-69
2022/01/19 02:21:36;;;;;;;12.10;7.47;;;;;;;;;;5073300;28;20400;-67
2022/01/19 02:22:30;;;;;;;11.20;7.57;;;;;;;;;;5072604;28;20871;-67
2022/01/19 02:24:56;;;;;;;10.30;7.40;;;;;;;;;;5072974;28;20444;-67
2022/01/19 02:40:50;;;;;;;14.10;7.63;;;;;;;;;;5072961;28;20392;-68
2022/01/19 02:43:25;;;;;;;12.43;8.20;;;;;;;;;;5072861;28;20404;-68
2022/01/19 02:51:21;;;;;;;10.07;7.17;;;;;;;;;;5076661;28;20417;-68
2022/01/19 02:53:47;;;;;;;11.37;7.30;;;;;;;;;;5076365;28;20468;-68
2022/01/19 02:56:27;;;;;;;12.40;7.50;;;;;;;;;;5057869;28;20771;-69
2022/01/19 02:59:11;;;;;;;8.87;7.00;;;;;;;;;;5076101;28;20947;-68
2022/01/19 03:09:41;;;;;;;9.37;7.10;;;;;;;;;;5076061;28;20474;-69
2022/01/19 03:12:08;;;;;;;11.10;7.00;;;;;;;;;;5076064;28;20874;-68
2022/01/19 03:14:34;;;;;;;11.40;7.40;;;;;;;;;;5075846;28;20426;-68
2022/01/19 03:17:00;;;;;;;10.63;6.90;;;;;;;;;;5075937;28;20496;-68
2022/01/19 03:19:28;;;;;;;12.73;7.63;;;;;;;;;;5076003;28;20776;-69
2022/01/19 03:21:54;;;;;;;12.47;8.30;;;;;;;;;;5075824;28;20467;-68
2022/01/19 03:24:20;;;;;;;10.77;7.10;;;;;;;;;;5075681;28;20413;-68
2022/01/19 03:26:46;;;;;;;17.27;8.53;;;;;;;;;;5075812;28;20406;-68
2022/01/19 03:29:13;;;;;;;14.80;8.37;;;;;;;;;;5075553;28;20862;-67
2022/01/19 03:31:39;;;;;;;13.10;7.80;;;;;;;;;;5075729;28;20413;-67
2022/01/19 03:34:06;;;;;;;13.53;7.90;;;;;;;;;;5075623;28;20753;-68
2022/01/19 03:36:33;;;;;;;10.30;7.87;;;;;;;;;;5075515;28;20406;-68
2022/01/19 03:38:59;;;;;;;11.07;8.20;;;;;;;;;;5075654;28;20785;-68
2022/01/19 03:41:25;;;;;;;14.50;8.80;;;;;;;;;;5075430;28;20873;-68
2022/01/19 03:43:52;;;;;;;10.27;7.00;;;;;;;;;;5075430;28;20554;-69
2022/01/19 03:46:18;;;;;;;16.90;8.20;;;;;;;;;;5075374;28;20406;-71
2022/01/19 03:48:53;;;;;;;11.97;7.43;;;;;;;;;;5057412;28;20459;-69
2022/01/19 03:51:20;;;;;;;14.20;8.80;;;;;;;;;;5075467;28;20499;-71
2022/01/19 03:53:46;;;;;;;11.77;7.70;;;;;;;;;;5075408;28;20394;-68
2022/01/19 03:56:12;;;;;;;12.80;7.37;;;;;;;;;;5074662;28;20776;-71
2022/01/19 03:58:38;;;;;;;13.17;8.07;;;;;;;;;;5074982;28;20404;-68
2022/01/19 04:01:05;;;;;;;14.63;8.37;;;;;;;;;;5075227;28;20401;-72
2022/01/19 04:06:29;;;;;;;12.40;8.10;;;;;;;;;;5075255;28;20394;-70
2022/01/19 04:08:55;;;;;;;12.10;7.83;;;;;;;;;;5074901;28;20468;-69
2022/01/19 04:11:22;;;;;;;13.97;8.33;;;;;;;;;;5074952;28;20741;-70
2022/01/19 04:16:31;;;;;;;10.17;7.73;;;;;;;;;;5074899;28;20403;-70
2022/01/19 04:19:21;;;;;;;12.53;8.03;;;;;;;;;;5056808;28;20428;-72
2022/01/19 04:21:47;;;;;;;12.40;8.73;;;;;;;;;;5074902;28;20755;-68
2022/01/19 04:24:13;;;;;;;13.87;8.23;;;;;;;;;;5074641;28;20406;-70
2022/01/19 04:26:39;;;;;;;13.87;8.03;;;;;;;;;;5074689;28;20732;-69
2022/01/19 04:29:05;;;;;;;13.30;9.00;;;;;;;;;;5074466;28;20453;-68
2022/01/19 04:31:32;;;;;;;13.60;7.73;;;;;;;;;;5056683;28;20525;-70
2022/01/19 04:34:03;;;;;;;13.27;8.03;;;;;;;;;;5074441;28;20396;-70
2022/01/19 04:39:22;;;;;;;15.30;7.60;;;;;;;;;;5074431;28;20491;-73
2022/01/19 05:03:33;;;;;;;18.10;10.18;;;;;;;;;;5074000;28;20402;-73
2022/01/19 05:06:05;;;;;;;16.70;10.70;;;;;;;;;;5073366;28;20167;-72
2022/01/19 05:13:52;;;;;;;14.65;9.55;;;;;;;;;;5073691;28;20410;-71
2022/01/19 05:16:21;;;;;;;16.43;10.10;;;;;;;;;;5073741;28;20291;-71
2022/01/19 05:18:48;;;;;;;15.80;9.87;;;;;;;;;;5073661;28;20509;-69
2022/01/19 05:21:14;;;;;;;21.00;10.50;;;;;;;;;;5073619;28;20412;-69
2022/01/19 05:23:41;;;;;;;21.43;9.97;;;;;;;;;;5073574;28;20402;-72
2022/01/19 05:26:06;;;;;;;14.00;9.50;;;;;;;;;;5073557;28;20500;-72
2022/01/19 05:28:32;;;;;;;13.53;9.30;;;;;;;;;;5073477;28;20948;-72
2022/01/19 05:30:58;;;;;;;15.50;9.33;;;;;;;;;;5073402;28;20429;-72
2022/01/19 05:33:24;;;;;;;17.87;9.67;;;;;;;;;;5055458;28;20737;-72
2022/01/19 05:35:50;;;;;;;15.82;9.25;;;;;;;;;;5073310;28;20874;-72
2022/01/19 05:38:17;;;;;;;14.87;9.83;;;;;;;;;;5073321;28;20172;-71
2022/01/19 05:40:43;;;;;;;18.07;9.40;;;;;;;;;;5073417;28;20473;-72
2022/01/19 05:43:10;;;;;;;13.70;9.10;;;;;;;;;;5073333;28;20873;-69
2022/01/19 05:45:36;;;;;;;12.67;8.73;;;;;;;;;;5073258;28;20508;-73
2022/01/19 05:48:02;;;;;;;16.73;9.03;;;;;;;;;;5073260;28;20514;-73
2022/01/19 05:50:28;;;;;;;25.92;10.05;;;;;;;;;;5073219;28;20468;-72
2022/01/19 05:52:54;;;;;;;22.10;8.60;;;;;;;;;;5073304;28;20178;-73
2022/01/19 05:55:20;;;;;;;18.05;9.70;;;;;;;;;;5073157;28;20399;-73
2022/01/19 05:57:47;;;;;;;18.70;8.20;;;;;;;;;;5073164;28;20471;-72
2022/01/19 06:00:13;;;;;;;14.50;8.37;;;;;;;;;;5072894;28;20484;-69
2022/01/19 06:02:39;;;;;;;13.00;8.43;;;;;;;;;;5073087;28;20417;-68
2022/01/19 06:05:06;;;;;;;13.43;7.97;;;;;;;;;;5073040;28;20394;-67
2022/01/19 06:07:40;;;;;;;19.23;8.77;;;;;;;;;;5073032;28;20436;-71
2022/01/19 06:10:11;;;;;;;12.70;8.03;;;;;;;;;;5073058;28;20472;-67
2022/01/19 06:12:41;;;;;;;17.00;8.23;;;;;;;;;;5073060;28;20421;-69
2022/01/19 06:15:07;;;;;;;14.23;7.87;;;;;;;;;;5072881;28;20497;-69
2022/01/19 06:17:34;;;;;;;13.75;8.32;;;;;;;;;;5055761;28;20776;-68
2022/01/19 06:20:00;;;;;;;15.57;8.85;;;;;;;;;;5077099;28;20170;-68
2022/01/19 06:22:26;;;;;;;17.67;9.20;;;;;;;;;;5076901;28;20175;-71
2022/01/19 06:24:52;;;;;;;15.00;8.30;;;;;;;;;;5077059;28;20419;-69
2022/01/19 06:27:18;;;;;;;15.80;8.73;;;;;;;;;;5076928;28;20409;-68
2022/01/19 06:29:44;;;;;;;14.43;8.67;;;;;;;;;;5076879;28;20478;-68
2022/01/19 06:32:10;;;;;;;14.07;8.20;;;;;;;;;;5076797;28;20405;-68
2022/01/19 06:34:36;;;;;;;16.80;8.63;;;;;;;;;;5076759;28;20410;-68
2022/01/19 06:37:03;;;;;;;17.00;8.30;;;;;;;;;;5076755;28;20901;-70
2022/01/19 06:39:29;;;;;;;10.77;7.63;;;;;;;;;;5076745;28;20397;-68
2022/01/19 06:41:55;;;;;;;16.73;8.60;;;;;;;;;;5076659;28;20412;-69
2022/01/19 06:44:21;;;;;;;14.13;8.90;;;;;;;;;;5076441;28;20844;-69
2022/01/19 06:46:47;;;;;;;14.98;8.30;;;;;;;;;;5076560;28;20412;-69
2022/01/19 06:49:13;;;;;;;15.00;7.67;;;;;;;;;;5076384;28;20294;-67
2022/01/19 06:51:39;;;;;;;16.10;8.80;;;;;;;;;;5076520;28;20424;-67
2022/01/19 06:54:05;;;;;;;15.67;8.57;;;;;;;;;;5076230;28;20943;-68
2022/01/19 06:56:36;;;;;;;14.17;9.07;;;;;;;;;;5076153;28;20412;-68
2022/01/19 06:59:02;;;;;;;23.10;8.60;;;;;;;;;;5076150;28;20944;-70
2022/01/19 07:01:32;;;;;;;13.93;8.37;;;;;;;;;;5076379;28;20412;-67
2022/01/19 07:03:58;;;;;;;17.07;9.47;;;;;;;;;;5076071;28;20410;-67
2022/01/19 07:06:23;;;;;;;15.73;8.20;;;;;;;;;;5076251;28;20487;-67
2022/01/19 07:08:49;;;;;;;16.70;9.20;;;;;;;;;;5076009;28;20944;-68
2022/01/19 07:11:15;;;;;;;16.73;8.77;;;;;;;;;;5076143;28;20412;-66
2022/01/19 07:13:41;;;;;;;16.03;8.57;;;;;;;;;;5075964;28;20953;-68
2022/01/19 07:16:07;;;;;;;19.33;9.20;;;;;;;;;;5075949;28;20414;-68
2022/01/19 07:18:33;;;;;;;10.50;7.30;;;;;;;;;;5076063;28;20400;-68
2022/01/19 07:20:59;;;;;;;17.23;8.10;;;;;;;;;;5075812;28;20884;-68
2022/01/19 07:23:25;;;;;;;17.93;9.00;;;;;;;;;;5075884;28;20410;-69
2022/01/19 07:25:51;;;;;;;14.07;9.07;;;;;;;;;;5075747;28;20406;-67
2022/01/19 07:28:17;;;;;;;14.17;9.27;;;;;;;;;;5075735;28;20456;-69
2022/01/19 07:30:43;;;;;;;17.17;9.30;;;;;;;;;;5074819;28;20479;-69
2022/01/19 07:33:11;;;;;;;17.73;10.50;;;;;;;;;;5075709;28;20402;-72
2022/01/19 07:35:37;;;;;;;14.00;9.30;;;;;;;;;;5075522;28;20430;-71
2022/01/19 07:38:03;;;;;;;16.93;9.27;;;;;;;;;;5075608;28;20418;-70
2022/01/19 07:40:29;;;;;;;17.47;9.93;;;;;;;;;;5075532;28;20460;-69
2022/01/19 07:42:55;;;;;;;14.40;9.73;;;;;;;;;;5075643;28;20500;-68
2022/01/19 07:45:21;;;;;;;20.60;9.83;;;;;;;;;;5075369;28;20412;-69
2022/01/19 07:47:47;;;;;;;15.90;9.70;;;;;;;;;;5075098;28;20972;-67
2022/01/19 07:50:13;;;;;;;15.60;9.20;;;;;;;;;;5075229;28;20818;-70
2022/01/19 07:52:40;;;;;;;17.23;9.20;;;;;;;;;;5075269;28;20907;-70
2022/01/19 07:55:06;;;;;;;14.47;8.97;;;;;;;;;;5075047;28;20889;-70
2022/01/19 07:57:32;;;;;;;15.13;9.20;;;;;;;;;;5075048;28;20406;-71
2022/01/19 07:59:58;;;;;;;17.43;9.60;;;;;;;;;;5075030;28;20465;-69
2022/01/19 08:02:32;;;;;;;15.70;9.83;;;;;;;;;;5074982;28;20784;-68
2022/01/19 08:04:58;;;;;;;17.40;10.33;;;;;;;;;;5075193;28;20760;-68
2022/01/19 08:07:24;;;;;;;14.27;9.87;;;;;;;;;;5075091;28;20406;-68
2022/01/19 08:09:50;;;;;;;15.83;9.57;;;;;;;;;;5074872;28;20563;-67
2022/01/19 08:12:16;;;;;;;14.20;9.50;;;;;;;;;;5074945;28;20484;-69
2022/01/19 08:14:42;;;;;;;16.73;10.23;;;;;;;;;;5075078;28;20757;-68
2022/01/19 08:17:09;;;;;;;19.90;11.30;;;;;;;;;;5056870;28;20780;-71
2022/01/19 08:19:35;;;;;;;17.20;10.07;;;;;;;;;;5074861;28;20500;-68
2022/01/19 08:22:01;;;;;;;16.10;10.40;;;;;;;;;;5074678;28;20428;-69
2022/01/19 08:24:27;;;;;;;20.57;10.80;;;;;;;;;;5074803;28;20881;-70
2022/01/19 08:26:54;;;;;;;16.13;10.40;;;;;;;;;;5074747;28;20441;-70
2022/01/19 08:29:20;;;;;;;15.97;10.13;;;;;;;;;;5056631;28;20832;-70
2022/01/19 08:31:46;;;;;;;18.87;11.07;;;;;;;;;;5056581;28;20479;-72
2022/01/19 08:34:13;;;;;;;18.20;10.67;;;;;;;;;;5074512;28;20504;-73
2022/01/19 08:36:39;;;;;;;17.87;10.20;;;;;;;;;;5074505;28;20410;-71
2022/01/19 08:39:07;;;;;;;15.70;9.77;;;;;;;;;;5074406;28;20409;-68
2022/01/19 08:41:33;;;;;;;16.97;10.50;;;;;;;;;;5073209;28;20407;-73
2022/01/19 08:43:59;;;;;;;22.17;12.00;;;;;;;;;;5074245;28;20412;-71
2022/01/19 08:46:25;;;;;;;17.30;10.40;;;;;;;;;;5074193;28;20410;-72
2022/01/19 08:48:51;;;;;;;19.93;12.00;;;;;;;;;;5074108;28;20501;-69
2022/01/19 08:51:17;;;;;;;18.97;11.90;;;;;;;;;;5074185;28;20479;-71
2022/01/19 08:53:43;;;;;;;22.10;11.73;;;;;;;;;;5056137;28;20422;-74
2022/01/19 08:56:09;;;;;;;22.80;10.53;;;;;;;;;;5055972;28;20454;-69
2022/01/19 08:58:35;;;;;;;16.80;10.70;;;;;;;;;;5073992;28;20413;-68
2022/01/19 09:01:01;;;;;;;19.70;11.33;;;;;;;;;;5073881;28;20515;-67
2022/01/19 09:03:28;;;;;;;20.07;11.57;;;;;;;;;;5073917;28;20410;-70
2022/01/19 09:05:54;;;;;;;20.47;11.90;;;;;;;;;;5073824;28;20499;-70
2022/01/19 09:08:20;;;;;;;20.50;11.63;;;;;;;;;;5055803;28;20808;-68
2022/01/19 09:10:50;;;;;;;21.83;11.50;;;;;;;;;;5073704;28;20476;-69
2022/01/19 09:13:16;;;;;;;18.27;11.03;;;;;;;;;;5073688;28;20471;-73
2022/01/19 09:15:42;;;;;;;20.90;11.07;;;;;;;;;;5073545;28;20927;-72
2022/01/19 09:18:08;;;;;;;20.73;10.57;;;;;;;;;;5073604;28;20405;-72
2022/01/19 09:20:34;;;;;;;19.00;11.30;;;;;;;;;;5073626;28;20401;-71
2022/01/19 09:23:02;;;;;;;18.00;11.67;;;;;;;;;;5055680;28;20421;-71
2022/01/19 09:25:28;;;;;;;18.60;10.90;;;;;;;;;;5073605;28;20881;-74
2022/01/19 09:27:54;;;;;;;22.17;12.97;;;;;;;;;;5073399;28;20410;-71
2022/01/19 09:30:24;;;;;;;17.60;10.77;;;;;;;;;;5073385;28;20460;-71
2022/01/19 09:33:08;;;;;;;17.10;10.77;;;;;;;;;;5073474;28;20483;-75
2022/01/19 09:35:51;;;;;;;19.13;11.63;;;;;;;;;;5073363;28;20441;-72
2022/01/19 09:38:18;;;;;;;22.30;12.40;;;;;;;;;;5073467;28;20388;-70
2022/01/19 09:40:44;;;;;;;21.60;12.20;;;;;;;;;;5055461;28;20460;-73
2022/01/19 09:43:10;;;;;;;18.03;11.47;;;;;;;;;;5073340;28;20447;-70
2022/01/19 09:45:37;;;;;;;17.33;10.93;;;;;;;;;;5055323;28;20413;-72
2022/01/19 09:48:03;;;;;;;18.93;10.10;;;;;;;;;;5055400;28;20423;-72
2022/01/19 09:50:29;;;;;;;15.70;10.13;;;;;;;;;;5055266;28;20477;-71
2022/01/19 09:52:56;;;;;;;15.20;10.33;;;;;;;;;;5072858;28;20902;-69
2022/01/19 09:55:22;;;;;;;16.30;11.10;;;;;;;;;;5072991;28;20393;-72
2022/01/19 09:57:48;;;;;;;16.43;10.13;;;;;;;;;;5055362;28;20475;-71
2022/01/19 10:00:14;;;;;;;18.57;10.67;;;;;;;;;;5072855;28;20975;-67
2022/01/19 10:02:40;;;;;;;26.17;11.80;;;;;;;;;;5072963;28;20410;-69
2022/01/19 10:05:09;;;;;;;22.60;10.83;;;;;;;;;;5073291;28;20410;-73
2022/01/19 10:07:36;;;;;;;21.87;11.00;;;;;;;;;;5073004;28;20401;-74
2022/01/19 10:10:04;;;;;;;16.20;9.90;;;;;;;;;;5072950;28;20469;-72
2022/01/19 10:18:18;;;;;;;24.17;11.43;;;;;;;;;;5072935;28;20398;-72
2022/01/19 10:20:45;;;;;;;17.10;10.60;;;;;;;;;;5072921;28;20404;-71
2022/01/19 10:23:36;;;;;;;16.33;8.90;;;;;;;;;;5072849;28;20409;-72
2022/01/19 10:26:03;;;;;;;19.40;10.80;;;;;;;;;;5073003;28;20400;-72
2022/01/19 10:28:29;;;;;;;18.17;10.77;;;;;;;;;;5072886;28;20409;-72
2022/01/19 10:30:55;;;;;;;17.80;9.83;;;;;;;;;;5072709;28;20513;-73
2022/01/19 10:33:21;;;;;;;18.10;9.70;;;;;;;;;;5072786;28;20394;-74
2022/01/19 10:35:49;;;;;;;18.13;9.90;;;;;;;;;;5072577;28;20410;-74
2022/01/19 10:38:16;;;;;;;14.80;9.30;;;;;;;;;;5072396;28;20725;-73
2022/01/19 10:40:44;;;;;;;14.00;9.03;;;;;;;;;;5072659;28;20423;-71
2022/01/19 10:43:29;;;;;;;19.00;9.70;;;;;;;;;;5072591;28;20404;-72
2022/01/19 10:45:55;;;;;;;14.57;9.00;;;;;;;;;;5072663;28;20506;-71
2022/01/19 10:48:32;;;;;;;15.50;9.17;;;;;;;;;;5072651;28;20408;-72
2022/01/19 10:51:08;;;;;;;15.97;10.73;;;;;;;;;;5072569;28;20883;-72
2022/01/19 10:53:34;;;;;;;16.63;9.40;;;;;;;;;;5072407;28;20474;-73
2022/01/19 10:56:05;;;;;;;16.63;9.27;;;;;;;;;;5072430;28;20905;-73
2022/01/19 10:58:31;;;;;;;15.90;9.83;;;;;;;;;;5072643;28;20415;-71
2022/01/19 11:00:57;;;;;;;17.53;10.20;;;;;;;;;;5072478;28;20526;-73
2022/01/19 11:03:25;;;;;;;15.00;9.40;;;;;;;;;;5072462;28;20416;-69
2022/01/19 11:05:58;;;;;;;16.03;9.43;;;;;;;;;;5075107;28;20433;-69
2022/01/19 11:08:26;;;;;;;16.33;10.13;;;;;;;;;;5076138;28;20398;-69
2022/01/19 11:10:53;;;;;;;15.80;9.50;;;;;;;;;;5076083;28;20464;-68
2022/01/19 11:15:54;;;;;;;14.67;9.80;;;;;;;;;;5075753;28;20408;-70
2022/01/19 11:18:21;;;;;;;15.10;9.70;;;;;;;;;;5058079;28;20942;-68
2022/01/19 11:20:48;;;;;;;17.70;10.00;;;;;;;;;;5075935;28;20407;-68
2022/01/19 11:23:19;;;;;;;14.10;9.30;;;;;;;;;;5057813;28;20492;-69
2022/01/19 11:25:47;;;;;;;14.00;8.50;;;;;;;;;;5075803;28;20408;-69
2022/01/19 11:28:24;;;;;;;16.77;9.90;;;;;;;;;;5075704;28;20755;-69
2022/01/19 11:30:50;;;;;;;17.90;9.73;;;;;;;;;;5057602;28;20471;-69
2022/01/19 11:33:25;;;;;;;13.20;8.83;;;;;;;;;;5075532;28;20412;-69
2022/01/19 11:35:53;;;;;;;19.70;11.60;;;;;;;;;;5075742;28;20405;-69
2022/01/19 11:38:34;;;;;;;21.10;11.67;;;;;;;;;;5075616;28;20839;-69
2022/01/19 11:41:22;;;;;;;21.00;11.30;;;;;;;;;;5075620;28;20497;-67
2022/01/19 11:43:52;;;;;;;20.23;11.00;;;;;;;;;;5008802;28;20412;-69
2022/01/19 11:46:31;;;;;;;18.13;10.47;;;;;;;;;;5057470;28;20448;-69
2022/01/19 11:48:58;;;;;;;18.70;11.53;;;;;;;;;;5075310;28;20412;-69
2022/01/19 11:51:25;;;;;;;22.33;12.23;;;;;;;;;;5075232;28;20928;-69
2022/01/19 11:54:10;;;;;;;20.40;11.70;;;;;;;;;;5075390;28;20909;-68
2022/01/19 11:57:05;;;;;;;20.20;12.70;;;;;;;;;;5075101;28;20415;-68
2022/01/19 11:59:46;;;;;;;20.13;11.20;;;;;;;;;;5075023;28;20548;-70
2022/01/19 12:02:24;;;;;;;20.00;11.40;;;;;;;;;;5075107;28;20981;-69
2022/01/19 12:04:54;;;;;;;23.47;12.13;;;;;;;;;;5075144;28;20397;-69
2022/01/19 12:07:39;;;;;;;17.43;10.60;;;;;;;;;;5075099;28;20399;-69
2022/01/19 12:10:07;;;;;;;22.10;10.30;;;;;;;;;;5075123;28;20818;-69
2022/01/19 12:12:39;;;;;;;22.63;11.17;;;;;;;;;;5075005;28;20413;-69
2022/01/19 12:15:08;;;;;;;17.87;11.10;;;;;;;;;;5056782;28;20484;-69
2022/01/19 12:17:57;;;;;;;17.10;10.73;;;;;;;;;;5074917;28;20448;-68
2022/01/19 12:20:41;;;;;;;16.47;9.60;;;;;;;;;;5074992;28;20405;-69
2022/01/19 12:23:26;;;;;;;14.97;9.20;;;;;;;;;;5056758;28;20839;-69
2022/01/19 12:25:53;;;;;;;16.10;9.80;;;;;;;;;;5074517;28;20408;-69
2022/01/19 12:28:38;;;;;;;11.30;7.80;;;;;;;;;;5074672;28;20492;-69
2022/01/19 12:31:22;;;;;;;16.93;10.07;;;;;;;;;;5074461;28;20464;-69
2022/01/19 12:34:07;;;;;;;16.40;9.70;;;;;;;;;;5074465;28;20409;-69
2022/01/19 12:36:47;;;;;;;14.37;9.00;;;;;;;;;;5074409;28;20417;-69
2022/01/19 12:39:28;;;;;;;17.07;10.13;;;;;;;;;;5074181;28;20401;-69
2022/01/19 12:41:54;;;;;;;17.53;9.90;;;;;;;;;;5056463;28;20403;-70
2022/01/19 12:44:35;;;;;;;19.67;9.87;;;;;;;;;;5073915;28;20492;-67
2022/01/19 12:47:05;;;;;;;16.63;10.77;;;;;;;;;;5056292;28;20776;-67
2022/01/19 12:49:32;;;;;;;17.67;10.20;;;;;;;;;;5073991;28;20886;-70
2022/01/19 12:52:00;;;;;;;18.13;8.33;;;;;;;;;;5073985;28;20824;-67
2022/01/19 12:54:28;;;;;;;15.10;9.90;;;;;;;;;;5073956;28;20486;-71
2022/01/19 12:56:56;;;;;;;15.90;9.53;;;;;;;;;;5073919;28;20406;-67
2022/01/19 12:59:23;;;;;;;17.23;10.67;;;;;;;;;;5073841;28;20457;-68
2022/01/19 13:01:49;;;;;;;13.53;9.17;;;;;;;;;;5074024;28;20398;-68
2022/01/19 13:04:25;;;;;;;14.30;9.47;;;;;;;;;;5073876;28;20402;-70
2022/01/19 13:06:54;;;;;;;16.50;9.00;;;;;;;;;;5073825;28;20397;-69
2022/01/19 13:09:28;;;;;;;14.07;8.80;;;;;;;;;;5073722;28;20539;-68
2022/01/19 13:11:55;;;;;;;13.10;9.37;;;;;;;;;;5073764;28;20895;-68
2022/01/19 13:14:25;;;;;;;11.83;7.97;;;;;;;;;;5073832;28;20402;-67
2022/01/19 13:16:53;;;;;;;13.27;9.13;;;;;;;;;;5073670;28;20408;-68
2022/01/19 13:19:21;;;;;;;18.00;9.87;;;;;;;;;;5073734;28;20414;-68
2022/01/19 13:21:51;;;;;;;15.97;9.60;;;;;;;;;;5055714;28;20412;-68
2022/01/19 13:24:25;;;;;;;13.63;8.97;;;;;;;;;;5073597;28;20397;-68
2022/01/19 13:26:54;;;;;;;13.70;8.67;;;;;;;;;;5073277;28;20403;-68
2022/01/19 13:29:22;;;;;;;13.00;8.40;;;;;;;;;;5073138;28;20833;-67
2022/01/19 13:32:03;;;;;;;12.20;8.10;;;;;;;;;;5073429;28;20493;-70
2022/01/19 13:34:31;;;;;;;16.77;8.50;;;;;;;;;;5073236;28;20400;-69
2022/01/19 13:36:59;;;;;;;13.53;9.00;;;;;;;;;;5073388;28;20397;-67
2022/01/19 13:39:25;;;;;;;17.20;9.03;;;;;;;;;;5073431;28;20443;-70
2022/01/19 13:41:53;;;;;;;12.90;7.70;;;;;;;;;;5073357;28;20591;-68
2022/01/19 13:44:25;;;;;;;13.50;9.10;;;;;;;;;;5073125;28;20392;-68
2022/01/19 13:46:51;;;;;;;14.97;8.20;;;;;;;;;;5073426;28;20412;-68
2022/01/19 13:49:17;;;;;;;11.43;7.90;;;;;;;;;;5073180;28;20460;-67
2022/01/19 13:51:43;;;;;;;12.30;8.03;;;;;;;;;;5073286;28;20730;-67
2022/01/19 13:54:09;;;;;;;15.30;8.70;;;;;;;;;;5073154;28;20400;-67
2022/01/19 13:56:36;;;;;;;13.23;8.10;;;;;;;;;;5073085;28;20466;-67
2022/01/19 13:59:06;;;;;;;15.10;10.27;;;;;;;;;;5073017;28;20512;-68
2022/01/19 14:01:34;;;;;;;13.83;9.47;;;;;;;;;;5073124;28;20413;-70
2022/01/19 14:04:06;;;;;;;13.87;9.50;;;;;;;;;;5073141;28;20396;-67
2022/01/19 14:06:33;;;;;;;16.93;10.00;;;;;;;;;;5073149;28;20400;-68
2022/01/19 14:09:07;;;;;;;12.20;7.57;;;;;;;;;;5073052;28;20432;-68
2022/01/19 14:11:33;;;;;;;19.73;8.87;;;;;;;;;;5073052;28;20421;-67
2022/01/19 14:14:03;;;;;;;13.40;7.50;;;;;;;;;;5072935;28;20411;-68
2022/01/19 14:16:32;;;;;;;13.80;7.27;;;;;;;;;;5072964;28;20405;-68
2022/01/19 14:19:05;;;;;;;9.20;6.50;;;;;;;;;;5072994;28;20462;-69
2022/01/19 14:21:31;;;;;;;10.10;6.30;;;;;;;;;;5073022;28;20408;-69
2022/01/19 14:23:58;;;;;;;9.57;5.70;;;;;;;;;;5072871;28;20480;-67
2022/01/19 14:26:24;;;;;;;10.13;6.37;;;;;;;;;;5072920;28;20413;-69
2022/01/19 14:29:09;;;;;;;12.70;5.83;;;;;;;;;;5072683;28;20409;-69
2022/01/19 14:31:35;;;;;;;9.80;5.80;;;;;;;;;;5072814;28;20407;-69
2022/01/19 14:34:01;;;;;;;11.53;6.37;;;;;;;;;;5072808;28;20489;-69
2022/01/19 14:36:27;;;;;;;12.60;5.83;;;;;;;;;;5072703;28;20406;-69
2022/01/19 14:38:58;;;;;;;8.10;5.37;;;;;;;;;;5073894;28;20406;-69
2022/01/19 14:41:31;;;;;;;10.30;5.70;;;;;;;;;;5076714;28;20399;-68
2022/01/19 14:44:08;;;;;;;9.17;5.40;;;;;;;;;;5076770;28;20396;-67
2022/01/19 14:46:41;;;;;;;10.70;6.10;;;;;;;;;;5058650;28;20500;-69
2022/01/19 14:49:07;;;;;;;9.17;6.13;;;;;;;;;;5076505;28;20461;-68
2022/01/19 14:51:37;;;;;;;18.30;6.40;;;;;;;;;;5076390;28;20461;-70
2022/01/19 14:54:08;;;;;;;10.60;6.17;;;;;;;;;;5076412;28;20880;-67
2022/01/19 14:56:35;;;;;;;15.67;6.83;;;;;;;;;;5058480;28;20872;-70
2022/01/19 14:59:08;;;;;;;13.73;6.60;;;;;;;;;;5076231;28;20461;-67
2022/01/19 15:01:35;;;;;;;10.80;6.90;;;;;;;;;;5058297;28;20436;-67
2022/01/19 15:04:02;;;;;;;12.53;7.50;;;;;;;;;;5058444;28;20735;-68
2022/01/19 15:06:28;;;;;;;12.03;7.33;;;;;;;;;;5076252;28;20405;-68
2022/01/19 15:08:54;;;;;;;8.70;6.40;;;;;;;;;;5076027;28;20413;-68
2022/01/19 15:11:21;;;;;;;11.77;7.07;;;;;;;;;;5076091;28;20762;-70
2022/01/19 15:13:47;;;;;;;23.33;8.80;;;;;;;;;;5076038;28;20966;-69
2022/01/19 15:16:13;;;;;;;12.43;7.43;;;;;;;;;;5076038;28;20406;-67
2022/01/19 15:18:40;;;;;;;11.63;7.33;;;;;;;;;;5075989;28;20416;-68
2022/01/19 15:21:06;;;;;;;14.43;8.10;;;;;;;;;;5076032;28;20409;-68
2022/01/19 15:23:32;;;;;;;11.20;7.90;;;;;;;;;;5075958;28;20414;-68
2022/01/19 15:26:00;;;;;;;12.77;7.10;;;;;;;;;;5075880;28;20432;-68
2022/01/19 15:28:26;;;;;;;13.00;7.70;;;;;;;;;;5075772;28;20401;-67
2022/01/19 15:30:52;;;;;;;11.10;7.07;;;;;;;;;;5075572;28;20471;-68
2022/01/19 15:33:20;;;;;;;12.97;7.43;;;;;;;;;;5075531;28;20402;-68
2022/01/19 15:35:47;;;;;;;11.23;6.93;;;;;;;;;;5075648;28;20416;-68
2022/01/19 15:38:13;;;;;;;12.17;7.27;;;;;;;;;;5075653;28;20888;-67
2022/01/19 15:40:41;;;;;;;15.03;7.93;;;;;;;;;;5075574;28;20429;-68
2022/01/19 15:43:09;;;;;;;13.83;7.50;;;;;;;;;;5075406;28;20398;-68
2022/01/19 15:45:36;;;;;;;13.23;7.37;;;;;;;;;;5057582;28;20413;-68
2022/01/19 15:48:03;;;;;;;12.10;6.83;;;;;;;;;;5075502;28;20398;-68
2022/01/19 15:50:30;;;;;;;15.13;7.43;;;;;;;;;;5074628;28;20609;-68
2022/01/19 15:52:56;;;;;;;13.07;8.20;;;;;;;;;;5075261;28;20412;-68
2022/01/19 15:55:22;;;;;;;11.40;8.67;;;;;;;;;;5057160;28;20508;-68
2022/01/19 15:57:49;;;;;;;14.27;8.30;;;;;;;;;;5075406;28;20407;-68